Time;durP1;ratioP1;P1;durP2;ratioP2;P2;SDS_P1;SDS_P2;PMS_P1;PMS_P2;Temp;Humidity;BMP_temperature;BMP_pressure;BME280_temperature;BME280_humidity;BME280_pressure;Samples;Min_cycle;Max_cycle;Signal;HPM_P1;HPM_P2
2020/12/17 00:02:14;;;;;;;17.55;12.98;;;8.00;99.90;;;;;;5036112;28;20231;-85
2020/12/17 00:04:40;;;;;;;16.75;12.73;;;8.00;99.90;;;;;;5037005;28;20206;-85
2020/12/17 00:07:07;;;;;;;16.10;12.63;;;8.00;99.90;;;;;;5035875;28;20226;-85
2020/12/17 00:09:33;;;;;;;16.13;11.63;;;8.00;99.90;;;;;;5016187;28;20203;-85
2020/12/17 00:12:01;;;;;;;15.90;12.45;;;7.90;99.90;;;;;;5015480;28;20224;-85
2020/12/17 00:14:27;;;;;;;17.35;12.25;;;7.80;99.90;;;;;;5035664;28;20874;-83
2020/12/17 00:16:54;;;;;;;16.83;12.70;;;7.90;99.90;;;;;;5036468;28;20206;-82
2020/12/17 00:19:20;;;;;;;15.10;11.85;;;8.00;99.90;;;;;;5035750;28;20211;-82
2020/12/17 00:21:47;;;;;;;14.25;11.50;;;7.80;99.90;;;;;;5036092;28;20305;-85
2020/12/17 00:24:13;;;;;;;15.43;12.18;;;8.10;99.90;;;;;;5035068;28;20635;-83
2020/12/17 00:26:40;;;;;;;15.02;11.77;;;8.00;99.90;;;;;;5034083;28;20221;-81
2020/12/17 00:29:07;;;;;;;14.13;11.80;;;8.00;99.90;;;;;;5033445;28;20261;-81
2020/12/17 00:31:34;;;;;;;20.10;11.70;;;8.00;99.90;;;;;;5033724;28;20227;-82
2020/12/17 00:34:00;;;;;;;16.33;11.75;;;8.10;99.90;;;;;;5039217;28;20206;-81
2020/12/17 00:36:27;;;;;;;14.45;11.63;;;8.00;99.90;;;;;;5046668;28;20210;-81
2020/12/17 00:38:53;;;;;;;17.83;11.57;;;8.20;99.90;;;;;;5024442;28;20204;-81
2020/12/17 00:41:20;;;;;;;15.85;11.35;;;8.20;99.90;;;;;;5033044;28;20262;-82
2020/12/17 00:43:47;;;;;;;17.98;12.75;;;8.30;99.90;;;;;;5044739;28;20307;-82
2020/12/17 00:46:15;;;;;;;15.70;11.68;;;8.20;99.90;;;;;;5038939;28;20226;-82
2020/12/17 00:48:42;;;;;;;17.42;12.70;;;8.10;99.90;;;;;;5040128;28;20217;-81
2020/12/17 00:51:10;;;;;;;14.48;11.68;;;8.30;99.90;;;;;;5036793;28;20241;-81
2020/12/17 00:53:36;;;;;;;15.90;11.40;;;8.20;99.90;;;;;;5047484;28;20213;-81
2020/12/17 00:56:04;;;;;;;15.48;10.80;;;8.10;99.90;;;;;;5029924;28;20207;-81
2020/12/17 00:58:31;;;;;;;15.32;10.68;;;8.10;99.90;;;;;;5034340;28;20333;-81
2020/12/17 01:00:57;;;;;;;11.65;9.50;;;8.00;99.90;;;;;;5045408;28;20215;-81
2020/12/17 01:03:37;;;;;;;13.70;10.27;;;8.00;99.90;;;;;;5059229;28;20444;-81
2020/12/17 01:06:07;;;;;;;16.00;10.70;;;8.00;99.90;;;;;;5031069;28;20619;-81
2020/12/17 01:08:34;;;;;;;16.20;11.20;;;7.80;99.90;;;;;;5034171;28;20307;-82
2020/12/17 01:11:01;;;;;;;13.98;10.38;;;7.90;99.90;;;;;;5034293;28;20229;-83
2020/12/17 01:13:27;;;;;;;14.77;10.70;;;8.00;99.90;;;;;;5036774;28;20199;-82
2020/12/17 01:15:54;;;;;;;17.80;10.95;;;7.80;99.90;;;;;;5034178;28;20218;-82
2020/12/17 01:18:20;;;;;;;17.08;10.05;;;8.00;99.90;;;;;;5033953;28;20564;-83
2020/12/17 01:20:48;;;;;;;13.20;10.02;;;7.90;99.90;;;;;;5034874;28;20231;-83
2020/12/17 01:23:14;;;;;;;11.88;9.10;;;8.00;99.90;;;;;;5034899;28;20538;-82
2020/12/17 01:25:41;;;;;;;15.13;10.63;;;8.20;99.90;;;;;;5034176;28;20242;-83
2020/12/17 01:28:12;;;;;;;15.98;10.30;;;8.00;99.90;;;;;;5034163;28;20213;-83
2020/12/17 01:30:38;;;;;;;13.30;10.32;;;7.90;99.90;;;;;;5034711;28;20207;-82
2020/12/17 01:33:05;;;;;;;14.82;11.07;;;7.80;99.90;;;;;;5034185;28;20591;-83
2020/12/17 01:35:31;;;;;;;14.38;11.05;;;7.90;99.90;;;;;;5033954;28;20222;-82
2020/12/17 01:37:59;;;;;;;15.55;9.27;;;7.80;99.90;;;;;;5032631;28;20279;-82
2020/12/17 01:40:25;;;;;;;14.00;11.15;;;8.00;99.90;;;;;;5033449;28;20214;-82
2020/12/17 01:42:52;;;;;;;15.10;9.90;;;7.70;99.90;;;;;;5039553;28;20230;-82
2020/12/17 01:45:18;;;;;;;14.00;9.95;;;7.80;99.90;;;;;;5034764;28;20560;-84
2020/12/17 01:47:48;;;;;;;14.05;10.35;;;7.70;99.90;;;;;;5034745;28;20218;-83
2020/12/17 01:50:15;;;;;;;16.63;10.43;;;7.70;99.90;;;;;;5034419;28;20242;-83
2020/12/17 01:52:41;;;;;;;13.95;10.35;;;7.80;99.90;;;;;;5038596;28;20251;-83
2020/12/17 01:55:09;;;;;;;13.55;10.43;;;7.80;99.90;;;;;;5038285;28;20215;-83
2020/12/17 01:57:38;;;;;;;11.88;9.48;;;7.70;99.90;;;;;;5039040;28;20222;-84
2020/12/17 02:00:07;;;;;;;12.38;9.98;;;7.80;99.90;;;;;;5038473;28;20222;-83
2020/12/17 02:02:34;;;;;;;12.60;10.15;;;7.60;99.90;;;;;;5041145;28;20225;-84
2020/12/17 02:05:01;;;;;;;11.45;9.00;;;7.60;99.90;;;;;;5037655;28;20203;-82
2020/12/17 02:07:29;;;;;;;12.77;9.60;;;7.60;99.90;;;;;;5038463;28;20207;-81
2020/12/17 02:09:56;;;;;;;13.98;10.93;;;7.70;99.90;;;;;;5039361;28;20294;-83
2020/12/17 02:12:25;;;;;;;12.73;9.52;;;7.70;99.90;;;;;;5039640;28;20258;-83
2020/12/17 02:14:52;;;;;;;13.88;9.73;;;7.60;99.90;;;;;;5046667;28;20641;-84
2020/12/17 02:17:18;;;;;;;13.02;9.88;;;7.50;99.90;;;;;;5038791;28;20218;-84
2020/12/17 02:19:44;;;;;;;12.60;9.50;;;7.70;99.90;;;;;;5038879;28;20210;-83
2020/12/17 02:22:11;;;;;;;12.60;9.23;;;7.50;99.90;;;;;;5038141;28;20259;-83
2020/12/17 02:24:39;;;;;;;12.70;8.85;;;7.70;99.90;;;;;;5044734;28;20286;-83
2020/12/17 02:27:06;;;;;;;14.30;9.90;;;7.50;99.90;;;;;;5052636;28;20206;-83
2020/12/17 02:29:32;;;;;;;12.48;8.80;;;7.60;99.90;;;;;;5057743;28;20213;-83
2020/12/17 02:31:59;;;;;;;11.73;8.93;;;7.60;99.90;;;;;;5039594;28;20806;-84
2020/12/17 02:34:25;;;;;;;13.57;9.68;;;7.70;99.90;;;;;;5053283;28;20206;-83
2020/12/17 02:36:52;;;;;;;13.48;9.85;;;7.60;99.90;;;;;;5041346;28;20200;-83
2020/12/17 02:39:18;;;;;;;14.13;9.95;;;7.70;99.90;;;;;;5038078;28;20203;-83
2020/12/17 02:41:46;;;;;;;13.55;9.15;;;7.60;99.90;;;;;;5038184;28;20717;-83
2020/12/17 02:44:13;;;;;;;15.68;9.55;;;7.60;99.90;;;;;;5040106;28;20206;-83
2020/12/17 02:46:40;;;;;;;11.25;8.98;;;7.40;99.90;;;;;;5038863;28;20199;-83
2020/12/17 02:49:06;;;;;;;12.75;9.77;;;7.40;99.90;;;;;;5037739;28;20204;-83
2020/12/17 02:51:33;;;;;;;11.90;9.23;;;7.50;99.90;;;;;;5037938;28;20714;-83
2020/12/17 02:53:59;;;;;;;13.25;10.20;;;7.50;99.90;;;;;;5046353;28;20203;-83
2020/12/17 02:56:26;;;;;;;14.35;9.95;;;7.20;99.90;;;;;;5038099;28;20229;-83
2020/12/17 02:58:53;;;;;;;13.50;9.35;;;7.30;99.90;;;;;;5061400;28;20198;-83
2020/12/17 03:01:20;;;;;;;12.68;9.48;;;7.20;99.90;;;;;;5047267;28;20756;-83
2020/12/17 03:03:46;;;;;;;11.68;9.35;;;7.40;99.90;;;;;;5050132;28;20672;-84
2020/12/17 03:08:45;;;;;;;14.02;9.90;;;7.00;99.90;;;;;;5029008;28;20232;-82
2020/12/17 03:11:12;;;;;;;13.25;9.70;;;6.90;99.90;;;;;;5015074;28;20195;-82
2020/12/17 03:13:38;;;;;;;14.63;10.10;;;6.90;99.90;;;;;;5032717;28;20199;-82
2020/12/17 03:16:06;;;;;;;12.45;9.30;;;7.10;99.90;;;;;;5023530;28;20200;-82
2020/12/17 03:18:32;;;;;;;12.10;9.02;;;7.00;99.90;;;;;;5018326;28;20232;-83
2020/12/17 03:20:59;;;;;;;12.23;9.50;;;6.90;99.90;;;;;;5017975;28;20223;-81
2020/12/17 03:23:26;;;;;;;11.85;9.30;;;6.90;99.90;;;;;;5027757;28;20598;-83
2020/12/17 03:25:52;;;;;;;10.85;8.70;;;6.90;99.90;;;;;;5018120;28;20216;-82
2020/12/17 03:28:19;;;;;;;12.68;9.02;;;7.00;99.90;;;;;;5023314;28;20243;-80
2020/12/17 03:30:45;;;;;;;11.10;8.43;;;7.00;99.90;;;;;;5024329;28;20200;-81
2020/12/17 03:33:13;;;;;;;12.38;8.88;;;7.00;99.90;;;;;;5023764;28;20728;-81
2020/12/17 03:35:39;;;;;;;12.90;9.43;;;6.80;99.90;;;;;;5023139;28;20254;-81
2020/12/17 03:38:06;;;;;;;13.82;9.45;;;7.00;99.90;;;;;;5022373;28;20227;-82
2020/12/17 03:40:33;;;;;;;12.50;8.70;;;7.00;99.90;;;;;;5019137;28;20204;-82
2020/12/17 03:42:59;;;;;;;11.35;8.70;;;6.90;99.90;;;;;;5019168;28;20204;-82
2020/12/17 03:45:26;;;;;;;10.88;8.43;;;7.00;99.90;;;;;;5019426;28;20200;-83
2020/12/17 03:47:52;;;;;;;13.07;8.88;;;7.00;99.90;;;;;;5019187;28;20262;-81
2020/12/17 03:50:20;;;;;;;11.98;8.18;;;7.00;99.90;;;;;;5020068;28;20219;-82
2020/12/17 03:52:46;;;;;;;13.27;8.98;;;6.90;99.90;;;;;;5019552;28;20192;-82
2020/12/17 03:55:13;;;;;;;13.07;8.95;;;7.00;99.90;;;;;;5019624;28;20764;-81
2020/12/17 03:57:40;;;;;;;10.80;8.90;;;6.90;99.90;;;;;;5020497;28;22028;-81
2020/12/17 04:00:07;;;;;;;12.32;9.18;;;6.90;99.90;;;;;;5025294;28;20196;-82
2020/12/17 04:02:33;;;;;;;12.73;9.57;;;6.90;99.90;;;;;;5021720;28;20230;-82
2020/12/17 04:05:00;;;;;;;11.80;9.13;;;7.00;99.90;;;;;;5005519;28;20770;-83
2020/12/17 04:07:28;;;;;;;11.88;9.13;;;6.90;99.90;;;;;;5014705;28;20327;-82
2020/12/17 04:09:55;;;;;;;14.80;9.10;;;6.90;99.90;;;;;;5022941;28;20208;-82
2020/12/17 04:12:21;;;;;;;15.55;9.57;;;7.10;99.90;;;;;;5008795;28;20205;-83
2020/12/17 04:14:48;;;;;;;12.55;9.48;;;7.00;99.90;;;;;;5016093;28;20208;-82
2020/12/17 04:17:14;;;;;;;12.20;8.52;;;7.30;99.90;;;;;;5016552;28;20224;-81
2020/12/17 04:19:41;;;;;;;12.63;9.27;;;6.90;99.90;;;;;;5018062;28;20204;-81
2020/12/17 04:22:07;;;;;;;14.05;8.60;;;7.00;99.90;;;;;;5018811;28;20773;-84
2020/12/17 04:24:35;;;;;;;14.32;9.40;;;7.20;99.90;;;;;;5019232;28;20204;-83
2020/12/17 04:27:01;;;;;;;13.68;9.73;;;7.20;99.90;;;;;;5019449;28;20240;-83
2020/12/17 04:29:28;;;;;;;11.43;8.32;;;7.30;99.90;;;;;;5019177;28;20211;-84
2020/12/17 04:31:54;;;;;;;13.70;9.57;;;7.40;99.90;;;;;;5018951;28;20683;-82
2020/12/17 04:34:21;;;;;;;13.60;9.57;;;7.30;99.90;;;;;;5019404;28;20212;-83
2020/12/17 04:36:48;;;;;;;17.23;9.82;;;7.50;99.90;;;;;;5023426;28;20230;-83
2020/12/17 04:39:14;;;;;;;13.73;9.40;;;7.40;99.90;;;;;;5019409;28;20211;-83
2020/12/17 04:41:43;;;;;;;13.55;8.45;;;7.10;99.90;;;;;;5022016;28;20228;-83
2020/12/17 04:44:11;;;;;;;10.95;8.73;;;7.10;99.90;;;;;;5022787;28;20212;-83
2020/12/17 04:46:37;;;;;;;12.88;9.50;;;7.30;99.90;;;;;;5029278;28;20224;-83
2020/12/17 04:49:06;;;;;;;11.93;8.68;;;7.20;99.90;;;;;;5028511;28;20295;-82
2020/12/17 04:51:35;;;;;;;13.25;9.07;;;7.20;99.90;;;;;;5022250;28;20208;-83
2020/12/17 04:54:02;;;;;;;11.80;8.85;;;7.20;99.90;;;;;;5022539;28;20200;-83
2020/12/17 04:56:38;;;;;;;13.23;8.95;;;7.10;99.90;;;;;;5005862;28;20232;-82
2020/12/17 04:59:09;;;;;;;14.32;11.05;;;7.20;99.90;;;;;;5003293;28;20215;-81
2020/12/17 05:01:43;;;;;;;14.45;9.40;;;7.40;99.90;;;;;;5028320;28;20289;-82
2020/12/17 05:04:12;;;;;;;12.80;10.25;;;7.30;99.90;;;;;;5025049;28;20213;-82
2020/12/17 05:06:39;;;;;;;11.85;9.18;;;7.10;99.90;;;;;;5004747;28;20255;-84
2020/12/17 05:09:06;;;;;;;12.07;10.18;;;7.30;99.90;;;;;;5038602;28;20203;-82
2020/12/17 05:11:33;;;;;;;15.73;10.18;;;7.50;99.90;;;;;;5037265;28;20204;-82
2020/12/17 05:14:01;;;;;;;15.48;10.10;;;7.30;99.90;;;;;;5019674;28;20636;-82
2020/12/17 05:16:28;;;;;;;14.93;10.77;;;7.20;99.90;;;;;;5025151;28;20204;-82
2020/12/17 05:18:55;;;;;;;11.45;9.20;;;7.20;99.90;;;;;;5023377;28;20200;-82
2020/12/17 05:21:21;;;;;;;14.38;10.18;;;7.40;99.90;;;;;;5022959;28;20220;-81
2020/12/17 05:23:50;;;;;;;11.77;7.65;;;7.20;99.90;;;;;;5022373;28;20254;-82
2020/12/17 05:26:16;;;;;;;13.75;10.18;;;7.30;99.90;;;;;;5022642;28;20200;-82
2020/12/17 05:28:44;;;;;;;13.80;9.50;;;7.30;99.90;;;;;;5023759;28;20211;-81
2020/12/17 05:31:20;;;;;;;14.50;8.45;;;7.40;99.90;;;;;;5024075;28;20624;-82
2020/12/17 05:33:48;;;;;;;15.00;11.60;;;7.30;99.90;;;;;;5020488;28;20208;-82
2020/12/17 05:36:20;;;;;;;12.38;9.00;;;7.30;99.90;;;;;;5021941;28;20204;-83
2020/12/17 05:38:48;;;;;;;15.23;10.15;;;7.40;99.90;;;;;;5002624;28;20640;-82
2020/12/17 05:41:17;;;;;;;13.50;10.13;;;7.20;99.90;;;;;;5011794;28;20703;-83
2020/12/17 05:43:43;;;;;;;12.80;9.18;;;7.00;99.90;;;;;;5022405;28;20207;-82
2020/12/17 05:46:10;;;;;;;11.35;9.15;;;7.00;99.90;;;;;;5023019;28;20208;-83
2020/12/17 05:48:36;;;;;;;10.63;8.52;;;7.20;99.90;;;;;;5031114;28;20196;-82
2020/12/17 05:51:04;;;;;;;15.38;10.20;;;7.00;99.90;;;;;;5031216;28;20208;-81
2020/12/17 05:53:32;;;;;;;14.07;9.52;;;7.00;99.90;;;;;;5030098;28;20200;-82
2020/12/17 05:56:03;;;;;;;15.50;10.00;;;6.90;99.90;;;;;;5005061;28;20204;-82
2020/12/17 05:58:39;;;;;;;13.60;9.55;;;6.90;99.90;;;;;;5006874;28;20223;-82
2020/12/17 06:01:11;;;;;;;12.80;10.10;;;7.10;99.90;;;;;;5030102;28;20491;-81
2020/12/17 06:03:38;;;;;;;12.88;9.13;;;7.20;99.90;;;;;;5031890;28;20256;-83
2020/12/17 06:06:07;;;;;;;14.45;10.73;;;7.20;99.90;;;;;;5028904;28;20633;-81
2020/12/17 06:08:36;;;;;;;12.27;8.88;;;7.00;99.90;;;;;;5020412;28;20240;-83
2020/12/17 06:11:05;;;;;;;13.02;9.13;;;7.20;99.90;;;;;;5020904;28;20231;-82
2020/12/17 06:13:38;;;;;;;12.85;9.40;;;6.90;99.90;;;;;;5020448;28;20247;-83
2020/12/17 06:16:06;;;;;;;14.05;9.80;;;7.10;99.90;;;;;;5021282;28;20234;-84
2020/12/17 06:18:38;;;;;;;12.25;9.88;;;7.00;99.90;;;;;;5021389;28;20231;-81
2020/12/17 06:21:09;;;;;;;11.57;8.98;;;7.00;99.90;;;;;;5023777;28;20228;-81
2020/12/17 06:23:37;;;;;;;11.90;8.85;;;7.00;99.90;;;;;;5022120;28;20200;-80
2020/12/17 06:26:08;;;;;;;11.50;9.70;;;7.10;99.90;;;;;;5004510;28;20281;-84
2020/12/17 06:28:44;;;;;;;14.88;10.10;;;6.90;99.90;;;;;;5001951;28;20282;-82
2020/12/17 06:31:14;;;;;;;12.43;9.20;;;7.10;99.90;;;;;;5020136;28;20444;-83
2020/12/17 06:33:42;;;;;;;11.25;8.82;;;7.00;99.90;;;;;;5021027;28;20208;-83
2020/12/17 06:36:18;;;;;;;10.75;8.95;;;6.80;99.90;;;;;;5028337;28;20208;-83
2020/12/17 06:38:47;;;;;;;13.48;9.70;;;6.80;99.90;;;;;;5046131;28;20226;-82
2020/12/17 06:41:18;;;;;;;13.48;9.48;;;6.80;99.90;;;;;;5029519;28;20235;-81
2020/12/17 06:43:45;;;;;;;15.77;8.98;;;6.70;99.90;;;;;;5025913;28;20203;-83
2020/12/17 06:46:31;;;;;;;11.35;8.90;;;7.20;99.90;;;;;;5019321;28;20215;-83
2020/12/17 06:48:59;;;;;;;12.70;9.65;;;7.00;99.90;;;;;;5008434;28;20259;-84
2020/12/17 06:51:37;;;;;;;12.07;7.88;;;7.00;99.90;;;;;;5018281;28;20196;-82
2020/12/17 06:54:06;;;;;;;15.40;8.65;;;7.10;99.90;;;;;;5022492;28;20204;-83
2020/12/17 06:56:37;;;;;;;10.88;8.60;;;7.00;99.90;;;;;;5027138;28;20228;-82
2020/12/17 06:59:15;;;;;;;12.10;8.57;;;7.10;99.90;;;;;;5025926;28;20223;-81
2020/12/17 07:01:42;;;;;;;11.75;8.57;;;7.10;99.90;;;;;;5026318;28;20226;-81
2020/12/17 07:04:09;;;;;;;12.35;7.50;;;7.10;99.90;;;;;;5024764;28;20204;-81
2020/12/17 07:06:36;;;;;;;10.25;7.40;;;6.90;99.90;;;;;;5024248;28;20242;-83
2020/12/17 07:09:04;;;;;;;9.90;7.57;;;6.90;99.90;;;;;;5021830;28;20208;-82
2020/12/17 07:11:42;;;;;;;10.88;7.78;;;7.20;99.90;;;;;;5024838;28;20204;-83
2020/12/17 07:14:11;;;;;;;11.05;7.45;;;7.10;99.90;;;;;;5023212;28;20674;-82
2020/12/17 07:16:38;;;;;;;11.52;7.65;;;7.10;99.90;;;;;;5026677;28;20228;-83
2020/12/17 07:19:25;;;;;;;11.75;8.00;;;7.10;99.90;;;;;;5019096;28;20211;-83
2020/12/17 07:21:58;;;;;;;10.20;7.03;;;7.20;99.90;;;;;;5019814;28;20223;-84
2020/12/17 07:24:27;;;;;;;7.80;5.75;;;7.20;99.90;;;;;;5023168;28;20258;-83
2020/12/17 07:26:58;;;;;;;10.65;6.22;;;7.20;99.90;;;;;;5021199;28;20256;-81
2020/12/17 07:29:44;;;;;;;9.18;6.32;;;7.30;99.90;;;;;;5024979;28;20263;-81
2020/12/17 07:32:25;;;;;;;7.93;5.75;;;7.40;99.90;;;;;;5024903;28;20215;-82
2020/12/17 07:34:53;;;;;;;8.73;6.25;;;7.50;99.90;;;;;;5024679;28;20218;-84
2020/12/17 07:37:37;;;;;;;10.93;6.00;;;7.40;99.90;;;;;;5020700;28;20289;-82
2020/12/17 07:40:14;;;;;;;8.07;6.05;;;7.40;99.90;;;;;;5020609;28;20204;-81
2020/12/17 07:42:41;;;;;;;8.25;5.78;;;7.40;99.90;;;;;;5023970;28;20607;-82
2020/12/17 07:45:09;;;;;;;8.68;5.68;;;7.50;99.90;;;;;;5020878;28;20212;-84
2020/12/17 07:47:35;;;;;;;8.10;5.55;;;7.30;99.90;;;;;;5021103;28;20690;-82
2020/12/17 07:50:02;;;;;;;8.40;5.00;;;7.30;99.90;;;;;;5020537;28;20211;-82
2020/12/17 07:52:31;;;;;;;6.45;4.75;;;7.30;99.90;;;;;;5025150;28;20204;-82
2020/12/17 07:54:59;;;;;;;9.32;6.10;;;7.40;99.90;;;;;;5019848;28;20701;-83
2020/12/17 07:57:26;;;;;;;8.02;5.32;;;7.40;99.90;;;;;;5014238;28;20228;-81
2020/12/17 07:59:53;;;;;;;5.78;3.97;;;7.40;99.90;;;;;;5012063;28;20196;-83
2020/12/17 08:02:20;;;;;;;7.93;4.75;;;7.50;99.90;;;;;;5021095;28;20219;-82
2020/12/17 08:04:47;;;;;;;6.57;5.10;;;7.80;99.90;;;;;;5021018;28;20219;-83
2020/12/17 08:07:14;;;;;;;6.88;4.80;;;7.80;99.90;;;;;;5022501;28;20239;-84
2020/12/17 08:09:41;;;;;;;7.32;4.50;;;7.90;99.90;;;;;;5032362;28;20208;-83
2020/12/17 08:12:11;;;;;;;7.10;4.28;;;7.80;99.90;;;;;;5022134;28;20207;-84
2020/12/17 08:14:38;;;;;;;7.93;4.57;;;7.80;99.90;;;;;;5021895;28;20227;-84
2020/12/17 08:17:06;;;;;;;8.18;4.15;;;7.80;99.90;;;;;;5021747;28;20255;-82
2020/12/17 08:19:33;;;;;;;9.48;4.10;;;7.90;99.90;;;;;;5026175;28;20200;-81
2020/12/17 08:22:01;;;;;;;5.78;3.63;;;7.80;99.90;;;;;;5027479;28;20236;-82
2020/12/17 08:24:28;;;;;;;7.00;4.53;;;7.60;99.90;;;;;;5024304;28;20210;-82
2020/12/17 08:26:56;;;;;;;8.00;4.40;;;7.70;99.90;;;;;;5027212;28;20228;-83
2020/12/17 08:29:24;;;;;;;7.22;4.20;;;8.00;99.90;;;;;;5027862;28;20416;-83
2020/12/17 08:31:52;;;;;;;5.75;3.92;;;7.90;99.90;;;;;;5032709;28;20216;-82
2020/12/17 08:34:20;;;;;;;9.43;4.57;;;7.80;99.90;;;;;;5031096;28;20218;-83
2020/12/17 08:36:47;;;;;;;6.60;4.03;;;8.00;99.90;;;;;;5016825;28;20284;-83
2020/12/17 08:39:17;;;;;;;6.07;4.25;;;8.10;99.90;;;;;;5037779;28;20197;-84
2020/12/17 08:41:48;;;;;;;8.60;4.40;;;8.10;99.90;;;;;;5020399;28;20307;-83
2020/12/17 08:44:17;;;;;;;10.13;3.85;;;8.20;99.90;;;;;;5016673;28;20196;-82
2020/12/17 08:46:49;;;;;;;6.30;4.00;;;8.20;99.90;;;;;;5018078;28;20219;-83
2020/12/17 08:49:17;;;;;;;6.68;3.88;;;8.20;99.90;;;;;;5021831;28;20232;-82
2020/12/17 08:51:48;;;;;;;7.57;4.65;;;8.30;99.90;;;;;;5020904;28;20614;-83
2020/12/17 08:54:25;;;;;;;7.93;4.30;;;8.40;99.90;;;;;;5019693;28;20237;-83
2020/12/17 08:56:59;;;;;;;7.13;4.30;;;8.20;99.90;;;;;;5013786;28;20226;-82
2020/12/17 08:59:25;;;;;;;9.13;4.72;;;8.30;99.90;;;;;;5007728;28;20213;-84
2020/12/17 09:01:53;;;;;;;8.63;4.13;;;8.20;99.90;;;;;;5005260;28;20225;-84
2020/12/17 09:04:20;;;;;;;9.80;4.85;;;8.10;99.90;;;;;;5020231;28;20211;-83
2020/12/17 09:06:52;;;;;;;5.70;4.00;;;8.40;99.90;;;;;;5020553;28;20242;-83
2020/12/17 09:09:25;;;;;;;6.60;3.80;;;8.30;99.90;;;;;;5005109;28;20219;-82
2020/12/17 09:11:52;;;;;;;6.05;4.00;;;8.30;99.90;;;;;;5022203;28;20608;-83
2020/12/17 09:14:20;;;;;;;6.65;4.35;;;8.40;99.90;;;;;;5019722;28;20576;-82
2020/12/17 09:16:48;;;;;;;7.82;4.53;;;8.80;99.90;;;;;;5021981;28;20219;-80
2020/12/17 09:19:16;;;;;;;7.50;5.00;;;8.70;99.90;;;;;;5020690;28;20204;-82
2020/12/17 09:22:00;;;;;;;6.40;4.40;;;8.90;99.90;;;;;;5002001;28;20220;-82
2020/12/17 09:24:27;;;;;;;6.07;4.25;;;8.90;99.90;;;;;;5002408;28;20208;-82
2020/12/17 09:26:54;;;;;;;7.07;4.80;;;8.60;99.90;;;;;;5079593;22;20603;-83
2020/12/17 09:29:21;;;;;;;6.60;4.30;;;8.70;99.90;;;;;;5081321;28;20302;-84
2020/12/17 09:31:47;;;;;;;9.20;5.25;;;8.50;99.90;;;;;;5064326;28;20207;-82
2020/12/17 09:34:17;;;;;;;7.65;4.82;;;8.90;99.90;;;;;;5072026;28;20696;-82
2020/12/17 09:36:55;;;;;;;12.27;5.80;;;8.80;99.90;;;;;;5072667;28;20221;-82
2020/12/17 09:39:22;;;;;;;7.20;4.60;;;8.70;99.90;;;;;;5070482;28;20235;-82
2020/12/17 09:41:54;;;;;;;8.13;4.68;;;8.70;99.90;;;;;;5083843;28;20228;-83
2020/12/17 09:44:31;;;;;;;7.03;4.88;;;8.60;99.90;;;;;;5076866;28;20206;-83
2020/12/17 09:46:58;;;;;;;9.35;5.20;;;8.70;99.90;;;;;;5072238;28;20217;-82
2020/12/17 09:49:31;;;;;;;7.18;4.60;;;8.90;99.90;;;;;;5071136;28;20194;-85
2020/12/17 09:52:10;;;;;;;6.50;4.68;;;8.80;99.90;;;;;;5070799;28;20198;-82
2020/12/17 09:54:41;;;;;;;7.80;4.65;;;8.70;99.90;;;;;;5066540;28;20206;-75
2020/12/17 09:57:11;;;;;;;7.90;3.90;;;9.00;99.90;;;;;;5053248;28;20242;-75
2020/12/17 09:59:38;;;;;;;7.28;4.40;;;8.90;99.90;;;;;;5052944;28;20194;-75
2020/12/17 10:02:06;;;;;;;6.53;4.28;;;8.80;99.90;;;;;;5071910;28;20590;-77
2020/12/17 10:04:34;;;;;;;7.22;4.22;;;9.00;99.90;;;;;;5081420;28;20201;-84
2020/12/17 10:07:01;;;;;;;8.35;4.00;;;9.20;99.90;;;;;;5081142;28;20283;-83
2020/12/17 10:09:28;;;;;;;7.43;5.15;;;9.10;99.90;;;;;;5080520;28;20297;-84
2020/12/17 10:11:56;;;;;;;6.45;4.50;;;9.20;99.90;;;;;;5077224;28;20206;-81
2020/12/17 10:14:24;;;;;;;7.95;5.00;;;9.20;99.90;;;;;;5080397;28;20572;-82
2020/12/17 10:16:57;;;;;;;8.63;4.85;;;9.10;99.90;;;;;;5078536;28;20253;-83
2020/12/17 10:19:30;;;;;;;7.40;4.82;;;9.40;99.90;;;;;;5080554;28;20241;-82
2020/12/17 10:21:58;;;;;;;8.25;4.65;;;9.40;99.90;;;;;;5083339;28;20271;-83
2020/12/17 10:24:28;;;;;;;7.45;5.00;;;9.50;99.90;;;;;;5080281;28;20210;-83
2020/12/17 10:26:55;;;;;;;7.32;4.30;;;9.60;99.90;;;;;;5082607;28;20810;-82
2020/12/17 10:29:22;;;;;;;5.97;3.97;;;9.70;99.90;;;;;;5088985;28;20220;-81
2020/12/17 10:31:49;;;;;;;9.85;4.70;;;9.70;99.90;;;;;;5077299;28;20454;-82
2020/12/17 10:34:16;;;;;;;9.93;4.77;;;9.80;99.90;;;;;;5077391;28;20631;-83
2020/12/17 10:36:43;;;;;;;7.90;4.85;;;9.90;99.90;;;;;;5077292;28;20544;-81
2020/12/17 10:39:12;;;;;;;6.80;4.68;;;9.90;99.90;;;;;;5075822;28;20278;-81
2020/12/17 10:41:39;;;;;;;8.55;4.90;;;10.00;99.90;;;;;;5080498;28;20264;-82
2020/12/17 10:44:07;;;;;;;7.95;4.50;;;10.00;99.90;;;;;;5083296;28;20270;-81
2020/12/17 10:46:35;;;;;;;8.13;4.77;;;10.10;99.90;;;;;;5075808;28;20226;-81
2020/12/17 10:49:03;;;;;;;7.90;4.77;;;10.10;99.90;;;;;;5075179;28;20452;-81
2020/12/17 10:51:30;;;;;;;7.55;4.78;;;10.10;99.90;;;;;;5075399;28;20522;-81
2020/12/17 10:53:56;;;;;;;6.20;4.53;;;10.20;99.90;;;;;;5074847;28;20270;-81
2020/12/17 10:56:24;;;;;;;7.50;4.97;;;10.30;99.90;;;;;;5074306;28;20234;-82
2020/12/17 10:58:51;;;;;;;9.90;5.03;;;10.40;99.90;;;;;;5074319;28;20462;-81
2020/12/17 11:01:21;;;;;;;6.33;4.60;;;10.40;99.90;;;;;;5073854;28;20460;-81
2020/12/17 11:03:48;;;;;;;7.43;4.93;;;10.50;99.90;;;;;;5074637;28;20456;-82
2020/12/17 11:06:15;;;;;;;10.90;4.70;;;10.70;99.90;;;;;;5075914;28;20782;-82
2020/12/17 11:08:42;;;;;;;5.85;4.13;;;10.80;99.90;;;;;;5075659;28;20459;-81
2020/12/17 11:11:09;;;;;;;6.40;4.00;;;11.00;99.90;;;;;;5074500;28;20249;-82
2020/12/17 11:13:39;;;;;;;6.38;3.60;;;11.10;99.90;;;;;;5075668;28;20447;-76
2020/12/17 11:16:05;;;;;;;8.20;3.70;;;11.20;99.90;;;;;;5064942;28;20226;-76
2020/12/17 11:18:33;;;;;;;5.07;3.40;;;11.30;99.90;;;;;;5052544;28;20468;-76
2020/12/17 11:21:03;;;;;;;8.80;5.20;;;11.30;99.90;;;;;;5067344;28;20428;-77
2020/12/17 11:23:39;;;;;;;5.43;3.60;;;11.30;99.90;;;;;;5051169;28;20852;-76
2020/12/17 11:26:06;;;;;;;13.07;6.00;;;11.30;99.90;;;;;;5071372;28;20564;-76
2020/12/17 11:28:32;;;;;;;6.13;4.27;;;11.40;99.90;;;;;;5072124;28;20525;-78
2020/12/17 11:31:00;;;;;;;6.90;3.97;;;11.40;99.90;;;;;;5071193;28;20509;-77
2020/12/17 11:33:30;;;;;;;8.33;4.50;;;11.50;99.90;;;;;;5064668;28;20452;-78
2020/12/17 11:35:57;;;;;;;4.73;3.30;;;11.50;99.90;;;;;;5055175;28;20961;-77
2020/12/17 11:38:23;;;;;;;8.20;5.10;;;11.50;99.90;;;;;;5052278;28;20939;-77
2020/12/17 11:40:50;;;;;;;10.13;4.70;;;11.50;99.90;;;;;;5065126;28;20451;-77
2020/12/17 11:43:17;;;;;;;11.37;5.80;;;11.50;99.90;;;;;;5067967;28;20517;-76
2020/12/17 11:45:44;;;;;;;8.37;4.40;;;11.50;99.90;;;;;;5070799;28;20489;-76
2020/12/17 11:48:11;;;;;;;6.63;4.67;;;11.50;99.90;;;;;;5070644;28;20550;-76
2020/12/17 11:50:38;;;;;;;6.33;3.70;;;11.60;99.90;;;;;;5070074;28;20487;-76
2020/12/17 11:53:05;;;;;;;6.53;3.53;;;11.80;99.90;;;;;;5070788;28;20472;-76
2020/12/17 11:55:31;;;;;;;5.87;3.80;;;11.90;99.90;;;;;;5070344;28;20958;-76
2020/12/17 11:57:58;;;;;;;6.15;3.83;;;11.90;99.90;;;;;;5050799;28;20555;-76
2020/12/17 12:00:26;;;;;;;5.93;3.83;;;11.90;99.90;;;;;;5060017;28;20197;-77
2020/12/17 12:02:53;;;;;;;8.27;4.40;;;11.90;99.90;;;;;;5071507;28;20511;-77
2020/12/17 12:05:20;;;;;;;6.50;4.27;;;11.90;99.90;;;;;;5071799;28;20954;-77
2020/12/17 12:07:47;;;;;;;8.20;4.53;;;11.90;99.90;;;;;;5058203;28;20449;-83
2020/12/17 12:10:16;;;;;;;6.63;4.23;;;11.90;99.90;;;;;;5074718;28;20464;-83
2020/12/17 12:12:43;;;;;;;6.27;3.70;;;12.00;99.90;;;;;;5070720;28;20476;-82
2020/12/17 12:15:09;;;;;;;7.17;4.20;;;12.00;99.90;;;;;;5056805;28;20464;-82
2020/12/17 12:17:36;;;;;;;7.90;4.43;;;12.00;99.90;;;;;;5074210;28;20578;-84
2020/12/17 12:20:03;;;;;;;9.40;6.37;;;12.00;99.90;;;;;;5077280;28;20482;-82
2020/12/17 12:22:30;;;;;;;6.27;4.77;;;11.90;99.90;;;;;;5074954;28;20557;-80
2020/12/17 12:28:29;;;;;;;7.93;4.30;;;12.00;99.90;;;;;;5033810;28;20963;-74
2020/12/17 12:30:56;;;;;;;6.23;4.00;;;12.00;99.90;;;;;;5057634;28;20457;-74
2020/12/17 12:33:23;;;;;;;7.03;4.40;;;12.00;99.90;;;;;;5051730;28;20461;-75
2020/12/17 12:35:53;;;;;;;9.73;6.00;;;12.10;99.90;;;;;;5065373;28;20473;-79
2020/12/17 12:38:22;;;;;;;7.07;4.60;;;12.20;99.90;;;;;;5066891;28;20450;-80
2020/12/17 12:40:49;;;;;;;6.77;3.97;;;12.40;99.90;;;;;;5082412;28;20459;-81
2020/12/17 12:43:18;;;;;;;8.73;4.93;;;12.60;99.90;;;;;;5089560;28;20476;-81
2020/12/17 12:45:45;;;;;;;9.63;5.70;;;12.60;99.90;;;;;;5067302;28;20465;-80
2020/12/17 12:48:18;;;;;;;9.60;5.60;;;12.40;99.90;;;;;;5058853;28;20449;-82
2020/12/17 12:50:48;;;;;;;10.10;5.67;;;12.10;99.90;;;;;;5074301;28;20746;-78
2020/12/17 12:53:17;;;;;;;12.23;6.40;;;11.70;99.90;;;;;;5073737;28;20841;-81
2020/12/17 12:58:57;;;;;;;18.40;7.60;;;11.40;99.90;;;;;;5076907;28;20442;-80
2020/12/17 13:04:23;;;;;;;13.70;7.67;;;11.10;99.90;;;;;;5073432;28;20962;-80
2020/12/17 13:06:51;;;;;;;12.10;7.60;;;11.00;99.90;;;;;;5072686;28;20475;-79